sensor_id;sensor_type;location;lat;lon;timestamp;P1;durP1;ratioP1;P2;durP2;ratioP2
8502;SDS011;4289;48.664;12.700;2022-11-25T00:03:15;0.13;;;0.13;;
8502;SDS011;4289;48.664;12.700;2022-11-25T00:06:38;0.10;;;0.10;;
8502;SDS011;4289;48.664;12.700;2022-11-25T00:10:03;0.10;;;0.10;;
8502;SDS011;4289;48.664;12.700;2022-11-25T00:13:27;0.10;;;0.10;;
8502;SDS011;4289;48.664;12.700;2022-11-25T00:16:52;0.10;;;0.10;;
8502;SDS011;4289;48.664;12.700;2022-11-25T00:20:14;0.10;;;0.10;;
8502;SDS011;4289;48.664;12.700;2022-11-25T00:23:38;0.20;;;0.20;;
8502;SDS011;4289;48.664;12.700;2022-11-25T00:27:03;0.10;;;0.10;;
8502;SDS011;4289;48.664;12.700;2022-11-25T00:30:26;0.10;;;0.10;;
8502;SDS011;4289;48.664;12.700;2022-11-25T00:33:50;0.10;;;0.10;;
8502;SDS011;4289;48.664;12.700;2022-11-25T00:37:16;0.10;;;0.10;;
8502;SDS011;4289;48.664;12.700;2022-11-25T00:40:39;0.10;;;0.10;;
8502;SDS011;4289;48.664;12.700;2022-11-25T00:44:01;0.17;;;0.17;;
8502;SDS011;4289;48.664;12.700;2022-11-25T00:47:41;0.10;;;0.10;;
8502;SDS011;4289;48.664;12.700;2022-11-25T00:51:06;0.10;;;0.10;;
8502;SDS011;4289;48.664;12.700;2022-11-25T00:54:28;0.10;;;0.10;;
8502;SDS011;4289;48.664;12.700;2022-11-25T00:57:51;0.10;;;0.10;;
8502;SDS011;4289;48.664;12.700;2022-11-25T01:01:16;0.10;;;0.10;;
8502;SDS011;4289;48.664;12.700;2022-11-25T01:04:39;0.20;;;0.20;;
8502;SDS011;4289;48.664;12.700;2022-11-25T01:08:03;0.13;;;0.13;;
8502;SDS011;4289;48.664;12.700;2022-11-25T01:11:25;0.10;;;0.10;;
8502;SDS011;4289;48.664;12.700;2022-11-25T01:14:48;0.10;;;0.10;;
8502;SDS011;4289;48.664;12.700;2022-11-25T01:18:10;0.20;;;0.20;;
8502;SDS011;4289;48.664;12.700;2022-11-25T01:21:35;0.10;;;0.10;;
8502;SDS011;4289;48.664;12.700;2022-11-25T01:24:59;0.10;;;0.10;;
8502;SDS011;4289;48.664;12.700;2022-11-25T01:28:24;0.17;;;0.17;;
8502;SDS011;4289;48.664;12.700;2022-11-25T01:31:47;0.20;;;0.20;;
8502;SDS011;4289;48.664;12.700;2022-11-25T01:35:17;0.10;;;0.10;;
8502;SDS011;4289;48.664;12.700;2022-11-25T01:38:43;0.10;;;0.10;;
8502;SDS011;4289;48.664;12.700;2022-11-25T01:42:07;0.10;;;0.10;;
8502;SDS011;4289;48.664;12.700;2022-11-25T01:45:34;0.10;;;0.10;;
8502;SDS011;4289;48.664;12.700;2022-11-25T01:48:58;0.20;;;0.20;;
8502;SDS011;4289;48.664;12.700;2022-11-25T01:52:24;0.20;;;0.20;;
8502;SDS011;4289;48.664;12.700;2022-11-25T01:55:50;0.10;;;0.10;;
8502;SDS011;4289;48.664;12.700;2022-11-25T01:59:17;0.10;;;0.10;;
8502;SDS011;4289;48.664;12.700;2022-11-25T02:02:39;0.10;;;0.10;;
8502;SDS011;4289;48.664;12.700;2022-11-25T02:06:03;0.10;;;0.10;;
8502;SDS011;4289;48.664;12.700;2022-11-25T02:09:28;0.20;;;0.20;;
8502;SDS011;4289;48.664;12.700;2022-11-25T02:12:51;0.10;;;0.10;;
8502;SDS011;4289;48.664;12.700;2022-11-25T02:16:15;0.10;;;0.10;;
8502;SDS011;4289;48.664;12.700;2022-11-25T02:19:45;0.20;;;0.20;;
8502;SDS011;4289;48.664;12.700;2022-11-25T02:23:21;0.10;;;0.10;;
8502;SDS011;4289;48.664;12.700;2022-11-25T02:26:50;0.20;;;0.20;;
8502;SDS011;4289;48.664;12.700;2022-11-25T02:30:15;0.10;;;0.10;;
8502;SDS011;4289;48.664;12.700;2022-11-25T02:33:37;0.20;;;0.20;;
8502;SDS011;4289;48.664;12.700;2022-11-25T02:37:00;0.10;;;0.10;;
8502;SDS011;4289;48.664;12.700;2022-11-25T02:40:22;0.13;;;0.13;;
8502;SDS011;4289;48.664;12.700;2022-11-25T02:43:46;0.10;;;0.10;;
8502;SDS011;4289;48.664;12.700;2022-11-25T02:47:09;0.10;;;0.10;;
8502;SDS011;4289;48.664;12.700;2022-11-25T02:50:34;0.10;;;0.10;;
8502;SDS011;4289;48.664;12.700;2022-11-25T02:53:56;0.10;;;0.10;;
8502;SDS011;4289;48.664;12.700;2022-11-25T02:57:19;0.17;;;0.17;;
8502;SDS011;4289;48.664;12.700;2022-11-25T03:00:43;0.10;;;0.10;;
8502;SDS011;4289;48.664;12.700;2022-11-25T03:04:06;0.10;;;0.10;;
8502;SDS011;4289;48.664;12.700;2022-11-25T03:07:29;0.20;;;0.20;;
8502;SDS011;4289;48.664;12.700;2022-11-25T03:10:52;0.20;;;0.20;;
8502;SDS011;4289;48.664;12.700;2022-11-25T03:14:18;0.13;;;0.13;;
8502;SDS011;4289;48.664;12.700;2022-11-25T03:17:45;0.20;;;0.20;;
8502;SDS011;4289;48.664;12.700;2022-11-25T03:21:08;0.10;;;0.10;;
8502;SDS011;4289;48.664;12.700;2022-11-25T03:24:31;0.10;;;0.10;;
8502;SDS011;4289;48.664;12.700;2022-11-25T03:27:53;0.10;;;0.10;;
8502;SDS011;4289;48.664;12.700;2022-11-25T03:31:16;0.10;;;0.10;;
8502;SDS011;4289;48.664;12.700;2022-11-25T03:34:41;0.10;;;0.10;;
8502;SDS011;4289;48.664;12.700;2022-11-25T03:38:03;0.20;;;0.20;;
8502;SDS011;4289;48.664;12.700;2022-11-25T03:41:26;0.10;;;0.10;;
8502;SDS011;4289;48.664;12.700;2022-11-25T03:44:48;0.10;;;0.10;;
8502;SDS011;4289;48.664;12.700;2022-11-25T03:48:13;0.10;;;0.10;;
8502;SDS011;4289;48.664;12.700;2022-11-25T03:51:37;0.10;;;0.10;;
8502;SDS011;4289;48.664;12.700;2022-11-25T03:55:02;0.10;;;0.10;;
8502;SDS011;4289;48.664;12.700;2022-11-25T03:58:25;0.20;;;0.20;;
8502;SDS011;4289;48.664;12.700;2022-11-25T04:01:47;0.20;;;0.20;;
8502;SDS011;4289;48.664;12.700;2022-11-25T04:05:10;0.20;;;0.20;;
8502;SDS011;4289;48.664;12.700;2022-11-25T04:08:34;0.20;;;0.20;;
8502;SDS011;4289;48.664;12.700;2022-11-25T04:11:56;0.10;;;0.10;;
8502;SDS011;4289;48.664;12.700;2022-11-25T04:15:36;0.10;;;0.10;;
8502;SDS011;4289;48.664;12.700;2022-11-25T04:18:58;0.10;;;0.10;;
8502;SDS011;4289;48.664;12.700;2022-11-25T04:22:20;0.20;;;0.20;;
8502;SDS011;4289;48.664;12.700;2022-11-25T04:25:44;0.30;;;0.30;;
8502;SDS011;4289;48.664;12.700;2022-11-25T04:29:09;0.30;;;0.30;;
8502;SDS011;4289;48.664;12.700;2022-11-25T04:32:31;0.30;;;0.30;;
8502;SDS011;4289;48.664;12.700;2022-11-25T04:35:53;0.20;;;0.20;;
8502;SDS011;4289;48.664;12.700;2022-11-25T04:39:16;0.20;;;0.20;;
8502;SDS011;4289;48.664;12.700;2022-11-25T04:42:39;0.30;;;0.30;;
8502;SDS011;4289;48.664;12.700;2022-11-25T04:46:02;0.30;;;0.30;;
8502;SDS011;4289;48.664;12.700;2022-11-25T04:49:25;0.30;;;0.30;;
8502;SDS011;4289;48.664;12.700;2022-11-25T04:52:47;0.33;;;0.33;;
8502;SDS011;4289;48.664;12.700;2022-11-25T04:56:10;0.20;;;0.20;;
8502;SDS011;4289;48.664;12.700;2022-11-25T04:59:39;0.20;;;0.20;;
8502;SDS011;4289;48.664;12.700;2022-11-25T05:03:01;0.20;;;0.20;;
8502;SDS011;4289;48.664;12.700;2022-11-25T05:06:24;0.20;;;0.20;;
8502;SDS011;4289;48.664;12.700;2022-11-25T05:09:46;0.10;;;0.10;;
8502;SDS011;4289;48.664;12.700;2022-11-25T05:13:09;0.20;;;0.20;;
8502;SDS011;4289;48.664;12.700;2022-11-25T05:16:34;0.20;;;0.20;;
8502;SDS011;4289;48.664;12.700;2022-11-25T05:19:57;0.20;;;0.20;;
8502;SDS011;4289;48.664;12.700;2022-11-25T05:23:19;0.20;;;0.20;;
8502;SDS011;4289;48.664;12.700;2022-11-25T05:26:41;0.30;;;0.30;;
8502;SDS011;4289;48.664;12.700;2022-11-25T05:30:04;0.40;;;0.40;;
8502;SDS011;4289;48.664;12.700;2022-11-25T05:33:29;0.20;;;0.20;;
8502;SDS011;4289;48.664;12.700;2022-11-25T05:36:52;0.10;;;0.10;;
8502;SDS011;4289;48.664;12.700;2022-11-25T05:40:15;0.10;;;0.10;;
8502;SDS011;4289;48.664;12.700;2022-11-25T05:43:38;0.10;;;0.10;;
8502;SDS011;4289;48.664;12.700;2022-11-25T05:47:00;0.10;;;0.10;;
8502;SDS011;4289;48.664;12.700;2022-11-25T05:50:24;0.10;;;0.10;;
8502;SDS011;4289;48.664;12.700;2022-11-25T05:53:47;0.17;;;0.17;;
8502;SDS011;4289;48.664;12.700;2022-11-25T05:57:09;0.13;;;0.13;;
8502;SDS011;4289;48.664;12.700;2022-11-25T06:00:31;0.17;;;0.17;;
8502;SDS011;4289;48.664;12.700;2022-11-25T06:04:00;0.10;;;0.10;;
8502;SDS011;4289;48.664;12.700;2022-11-25T06:07:25;0.17;;;0.17;;
8502;SDS011;4289;48.664;12.700;2022-11-25T06:10:52;0.10;;;0.10;;
8502;SDS011;4289;48.664;12.700;2022-11-25T06:14:27;0.20;;;0.20;;
8502;SDS011;4289;48.664;12.700;2022-11-25T06:17:52;0.10;;;0.10;;
8502;SDS011;4289;48.664;12.700;2022-11-25T06:21:15;0.10;;;0.10;;
8502;SDS011;4289;48.664;12.700;2022-11-25T06:24:39;0.10;;;0.10;;
8502;SDS011;4289;48.664;12.700;2022-11-25T06:28:02;0.10;;;0.10;;
8502;SDS011;4289;48.664;12.700;2022-11-25T06:31:25;0.20;;;0.20;;
8502;SDS011;4289;48.664;12.700;2022-11-25T06:34:47;0.13;;;0.13;;
8502;SDS011;4289;48.664;12.700;2022-11-25T06:38:09;0.10;;;0.10;;
8502;SDS011;4289;48.664;12.700;2022-11-25T06:41:33;0.10;;;0.10;;
8502;SDS011;4289;48.664;12.700;2022-11-25T06:44:55;0.20;;;0.20;;
8502;SDS011;4289;48.664;12.700;2022-11-25T06:48:17;0.13;;;0.13;;
8502;SDS011;4289;48.664;12.700;2022-11-25T06:51:40;0.20;;;0.20;;
8502;SDS011;4289;48.664;12.700;2022-11-25T06:55:03;0.30;;;0.30;;
8502;SDS011;4289;48.664;12.700;2022-11-25T06:58:27;0.30;;;0.30;;
8502;SDS011;4289;48.664;12.700;2022-11-25T07:01:50;0.20;;;0.20;;
8502;SDS011;4289;48.664;12.700;2022-11-25T07:05:12;0.30;;;0.30;;
8502;SDS011;4289;48.664;12.700;2022-11-25T07:08:35;0.20;;;0.20;;
8502;SDS011;4289;48.664;12.700;2022-11-25T07:11:57;0.10;;;0.10;;
8502;SDS011;4289;48.664;12.700;2022-11-25T07:15:21;0.10;;;0.10;;
8502;SDS011;4289;48.664;12.700;2022-11-25T07:18:44;0.10;;;0.10;;
8502;SDS011;4289;48.664;12.700;2022-11-25T07:22:06;0.10;;;0.10;;
8502;SDS011;4289;48.664;12.700;2022-11-25T07:25:29;0.20;;;0.20;;
8502;SDS011;4289;48.664;12.700;2022-11-25T07:28:53;0.20;;;0.20;;
8502;SDS011;4289;48.664;12.700;2022-11-25T07:32:19;0.10;;;0.10;;
8502;SDS011;4289;48.664;12.700;2022-11-25T07:35:43;0.10;;;0.10;;
8502;SDS011;4289;48.664;12.700;2022-11-25T07:39:05;0.10;;;0.10;;
8502;SDS011;4289;48.664;12.700;2022-11-25T07:42:28;0.20;;;0.20;;
8502;SDS011;4289;48.664;12.700;2022-11-25T07:45:52;0.10;;;0.10;;
8502;SDS011;4289;48.664;12.700;2022-11-25T07:49:17;0.20;;;0.20;;
8502;SDS011;4289;48.664;12.700;2022-11-25T07:52:40;0.10;;;0.10;;
8502;SDS011;4289;48.664;12.700;2022-11-25T07:56:02;0.10;;;0.10;;
8502;SDS011;4289;48.664;12.700;2022-11-25T07:59:25;0.10;;;0.10;;
8502;SDS011;4289;48.664;12.700;2022-11-25T08:02:47;0.10;;;0.10;;
8502;SDS011;4289;48.664;12.700;2022-11-25T08:06:11;0.10;;;0.10;;
8502;SDS011;4289;48.664;12.700;2022-11-25T08:09:35;0.10;;;0.10;;
8502;SDS011;4289;48.664;12.700;2022-11-25T08:12:58;0.10;;;0.10;;
8502;SDS011;4289;48.664;12.700;2022-11-25T08:16:22;0.10;;;0.10;;
8502;SDS011;4289;48.664;12.700;2022-11-25T08:19:46;0.10;;;0.10;;
8502;SDS011;4289;48.664;12.700;2022-11-25T08:23:09;0.10;;;0.10;;
8502;SDS011;4289;48.664;12.700;2022-11-25T08:26:32;0.10;;;0.10;;
8502;SDS011;4289;48.664;12.700;2022-11-25T08:29:56;0.10;;;0.10;;
8502;SDS011;4289;48.664;12.700;2022-11-25T08:33:19;0.10;;;0.10;;
8502;SDS011;4289;48.664;12.700;2022-11-25T08:36:41;0.10;;;0.10;;
8502;SDS011;4289;48.664;12.700;2022-11-25T08:40:07;0.10;;;0.10;;
8502;SDS011;4289;48.664;12.700;2022-11-25T08:43:30;0.10;;;0.10;;
8502;SDS011;4289;48.664;12.700;2022-11-25T08:46:53;0.10;;;0.10;;
8502;SDS011;4289;48.664;12.700;2022-11-25T08:50:16;0.10;;;0.10;;
8502;SDS011;4289;48.664;12.700;2022-11-25T08:53:39;0.20;;;0.20;;
8502;SDS011;4289;48.664;12.700;2022-11-25T08:57:04;0.10;;;0.10;;
8502;SDS011;4289;48.664;12.700;2022-11-25T09:00:26;0.10;;;0.10;;
8502;SDS011;4289;48.664;12.700;2022-11-25T09:03:53;0.10;;;0.10;;
8502;SDS011;4289;48.664;12.700;2022-11-25T09:07:16;0.10;;;0.10;;
8502;SDS011;4289;48.664;12.700;2022-11-25T09:10:38;0.10;;;0.10;;
8502;SDS011;4289;48.664;12.700;2022-11-25T09:17:40;0.10;;;0.10;;
8502;SDS011;4289;48.664;12.700;2022-11-25T09:21:06;0.10;;;0.10;;
8502;SDS011;4289;48.664;12.700;2022-11-25T09:24:29;0.10;;;0.10;;
8502;SDS011;4289;48.664;12.700;2022-11-25T09:27:52;0.10;;;0.10;;
8502;SDS011;4289;48.664;12.700;2022-11-25T09:31:16;0.10;;;0.10;;
8502;SDS011;4289;48.664;12.700;2022-11-25T09:34:38;0.10;;;0.10;;
8502;SDS011;4289;48.664;12.700;2022-11-25T09:38:01;0.10;;;0.10;;
8502;SDS011;4289;48.664;12.700;2022-11-25T09:41:30;0.10;;;0.10;;
8502;SDS011;4289;48.664;12.700;2022-11-25T09:45:19;0.10;;;0.10;;
8502;SDS011;4289;48.664;12.700;2022-11-25T09:49:05;0.10;;;0.10;;
8502;SDS011;4289;48.664;12.700;2022-11-25T09:52:34;0.13;;;0.13;;
8502;SDS011;4289;48.664;12.700;2022-11-25T09:56:01;0.10;;;0.10;;
8502;SDS011;4289;48.664;12.700;2022-11-25T09:59:27;0.10;;;0.10;;
8502;SDS011;4289;48.664;12.700;2022-11-25T10:02:55;0.10;;;0.10;;
8502;SDS011;4289;48.664;12.700;2022-11-25T10:06:23;0.00;;;0.00;;
8502;SDS011;4289;48.664;12.700;2022-11-25T10:09:47;0.10;;;0.10;;
8502;SDS011;4289;48.664;12.700;2022-11-25T10:13:13;0.10;;;0.10;;
8502;SDS011;4289;48.664;12.700;2022-11-25T10:16:40;0.10;;;0.10;;
8502;SDS011;4289;48.664;12.700;2022-11-25T10:20:06;0.10;;;0.10;;
8502;SDS011;4289;48.664;12.700;2022-11-25T10:23:36;0.10;;;0.10;;
8502;SDS011;4289;48.664;12.700;2022-11-25T10:27:00;0.10;;;0.10;;
8502;SDS011;4289;48.664;12.700;2022-11-25T10:30:28;0.10;;;0.10;;
8502;SDS011;4289;48.664;12.700;2022-11-25T10:33:55;0.10;;;0.10;;
8502;SDS011;4289;48.664;12.700;2022-11-25T10:37:22;0.10;;;0.10;;
8502;SDS011;4289;48.664;12.700;2022-11-25T10:40:49;0.10;;;0.10;;
8502;SDS011;4289;48.664;12.700;2022-11-25T10:44:13;0.10;;;0.10;;
8502;SDS011;4289;48.664;12.700;2022-11-25T10:47:49;0.10;;;0.10;;
8502;SDS011;4289;48.664;12.700;2022-11-25T10:51:29;0.00;;;0.00;;
8502;SDS011;4289;48.664;12.700;2022-11-25T10:55:06;0.10;;;0.10;;
8502;SDS011;4289;48.664;12.700;2022-11-25T10:58:32;0.10;;;0.10;;
8502;SDS011;4289;48.664;12.700;2022-11-25T11:02:11;0.10;;;0.10;;
8502;SDS011;4289;48.664;12.700;2022-11-25T11:05:36;0.10;;;0.10;;
8502;SDS011;4289;48.664;12.700;2022-11-25T11:12:56;0.10;;;0.10;;
8502;SDS011;4289;48.664;12.700;2022-11-25T11:16:24;0.10;;;0.10;;
8502;SDS011;4289;48.664;12.700;2022-11-25T11:19:58;0.10;;;0.10;;
8502;SDS011;4289;48.664;12.700;2022-11-25T11:23:45;0.10;;;0.10;;
8502;SDS011;4289;48.664;12.700;2022-11-25T11:27:14;0.10;;;0.10;;
8502;SDS011;4289;48.664;12.700;2022-11-25T11:30:41;0.10;;;0.10;;
8502;SDS011;4289;48.664;12.700;2022-11-25T11:34:26;0.10;;;0.10;;
8502;SDS011;4289;48.664;12.700;2022-11-25T11:37:57;0.10;;;0.10;;
8502;SDS011;4289;48.664;12.700;2022-11-25T11:41:28;0.10;;;0.10;;
8502;SDS011;4289;48.664;12.700;2022-11-25T11:44:58;0.10;;;0.10;;
8502;SDS011;4289;48.664;12.700;2022-11-25T11:48:28;0.10;;;0.10;;
8502;SDS011;4289;48.664;12.700;2022-11-25T11:52:00;0.10;;;0.10;;
8502;SDS011;4289;48.664;12.700;2022-11-25T11:55:43;0.10;;;0.10;;
8502;SDS011;4289;48.664;12.700;2022-11-25T11:59:37;0.10;;;0.10;;
8502;SDS011;4289;48.664;12.700;2022-11-25T12:03:10;0.10;;;0.10;;
8502;SDS011;4289;48.664;12.700;2022-11-25T12:06:35;0.10;;;0.10;;
8502;SDS011;4289;48.664;12.700;2022-11-25T12:10:02;0.10;;;0.10;;
8502;SDS011;4289;48.664;12.700;2022-11-25T12:13:31;0.10;;;0.10;;
8502;SDS011;4289;48.664;12.700;2022-11-25T12:16:59;0.10;;;0.10;;
8502;SDS011;4289;48.664;12.700;2022-11-25T12:20:25;0.10;;;0.10;;
8502;SDS011;4289;48.664;12.700;2022-11-25T12:23:55;0.10;;;0.10;;
8502;SDS011;4289;48.664;12.700;2022-11-25T12:27:25;0.10;;;0.10;;
8502;SDS011;4289;48.664;12.700;2022-11-25T12:31:05;0.10;;;0.10;;
8502;SDS011;4289;48.664;12.700;2022-11-25T12:34:33;0.10;;;0.10;;
8502;SDS011;4289;48.664;12.700;2022-11-25T12:38:04;0.10;;;0.10;;
8502;SDS011;4289;48.664;12.700;2022-11-25T12:41:36;0.10;;;0.10;;
8502;SDS011;4289;48.664;12.700;2022-11-25T12:45:03;0.10;;;0.10;;
8502;SDS011;4289;48.664;12.700;2022-11-25T12:48:30;0.10;;;0.10;;
8502;SDS011;4289;48.664;12.700;2022-11-25T12:51:56;0.10;;;0.10;;
8502;SDS011;4289;48.664;12.700;2022-11-25T12:55:29;0.10;;;0.10;;
8502;SDS011;4289;48.664;12.700;2022-11-25T12:58:52;0.10;;;0.10;;
8502;SDS011;4289;48.664;12.700;2022-11-25T13:02:33;0.10;;;0.10;;
8502;SDS011;4289;48.664;12.700;2022-11-25T13:06:15;0.10;;;0.10;;
8502;SDS011;4289;48.664;12.700;2022-11-25T13:13:48;0.10;;;0.10;;
8502;SDS011;4289;48.664;12.700;2022-11-25T13:17:13;0.10;;;0.10;;
8502;SDS011;4289;48.664;12.700;2022-11-25T13:24:32;0.10;;;0.10;;
8502;SDS011;4289;48.664;12.700;2022-11-25T13:27:59;0.10;;;0.10;;
8502;SDS011;4289;48.664;12.700;2022-11-25T13:31:22;0.10;;;0.10;;
8502;SDS011;4289;48.664;12.700;2022-11-25T13:34:51;0.10;;;0.10;;
8502;SDS011;4289;48.664;12.700;2022-11-25T13:39:02;0.10;;;0.10;;
8502;SDS011;4289;48.664;12.700;2022-11-25T13:42:26;0.10;;;0.10;;
8502;SDS011;4289;48.664;12.700;2022-11-25T13:45:48;0.10;;;0.10;;
8502;SDS011;4289;48.664;12.700;2022-11-25T13:49:21;0.10;;;0.10;;
8502;SDS011;4289;48.664;12.700;2022-11-25T13:52:56;0.10;;;0.10;;
8502;SDS011;4289;48.664;12.700;2022-11-25T13:56:26;0.10;;;0.10;;
8502;SDS011;4289;48.664;12.700;2022-11-25T13:59:50;0.10;;;0.10;;
8502;SDS011;4289;48.664;12.700;2022-11-25T14:07:05;0.10;;;0.10;;
8502;SDS011;4289;48.664;12.700;2022-11-25T14:10:40;0.10;;;0.10;;
8502;SDS011;4289;48.664;12.700;2022-11-25T14:14:15;0.10;;;0.10;;
8502;SDS011;4289;48.664;12.700;2022-11-25T14:18:01;0.10;;;0.10;;
8502;SDS011;4289;48.664;12.700;2022-11-25T14:21:51;0.10;;;0.10;;
8502;SDS011;4289;48.664;12.700;2022-11-25T14:25:21;0.10;;;0.10;;
8502;SDS011;4289;48.664;12.700;2022-11-25T14:28:46;0.10;;;0.10;;
8502;SDS011;4289;48.664;12.700;2022-11-25T14:32:16;0.10;;;0.10;;
8502;SDS011;4289;48.664;12.700;2022-11-25T14:35:41;0.10;;;0.10;;
8502;SDS011;4289;48.664;12.700;2022-11-25T14:39:08;0.10;;;0.10;;
8502;SDS011;4289;48.664;12.700;2022-11-25T14:42:35;0.10;;;0.10;;
8502;SDS011;4289;48.664;12.700;2022-11-25T14:46:09;0.10;;;0.10;;
8502;SDS011;4289;48.664;12.700;2022-11-25T14:49:43;0.10;;;0.10;;
8502;SDS011;4289;48.664;12.700;2022-11-25T14:53:06;0.10;;;0.10;;
8502;SDS011;4289;48.664;12.700;2022-11-25T14:56:30;0.10;;;0.10;;
8502;SDS011;4289;48.664;12.700;2022-11-25T14:59:55;0.10;;;0.10;;
8502;SDS011;4289;48.664;12.700;2022-11-25T15:03:18;0.10;;;0.10;;
8502;SDS011;4289;48.664;12.700;2022-11-25T15:06:46;0.10;;;0.10;;
8502;SDS011;4289;48.664;12.700;2022-11-25T15:13:52;0.10;;;0.10;;
8502;SDS011;4289;48.664;12.700;2022-11-25T15:17:21;0.10;;;0.10;;
8502;SDS011;4289;48.664;12.700;2022-11-25T15:20:47;0.10;;;0.10;;
8502;SDS011;4289;48.664;12.700;2022-11-25T15:24:20;0.10;;;0.10;;
8502;SDS011;4289;48.664;12.700;2022-11-25T15:27:44;0.10;;;0.10;;
8502;SDS011;4289;48.664;12.700;2022-11-25T15:31:10;0.00;;;0.00;;
8502;SDS011;4289;48.664;12.700;2022-11-25T15:34:36;0.10;;;0.10;;
8502;SDS011;4289;48.664;12.700;2022-11-25T15:37:59;0.10;;;0.10;;
8502;SDS011;4289;48.664;12.700;2022-11-25T15:41:37;0.10;;;0.10;;
8502;SDS011;4289;48.664;12.700;2022-11-25T15:45:02;0.10;;;0.10;;
8502;SDS011;4289;48.664;12.700;2022-11-25T15:48:31;0.10;;;0.10;;
8502;SDS011;4289;48.664;12.700;2022-11-25T15:51:56;0.10;;;0.10;;
8502;SDS011;4289;48.664;12.700;2022-11-25T15:55:25;0.10;;;0.10;;
8502;SDS011;4289;48.664;12.700;2022-11-25T15:58:52;0.10;;;0.10;;
8502;SDS011;4289;48.664;12.700;2022-11-25T16:02:35;0.10;;;0.10;;
8502;SDS011;4289;48.664;12.700;2022-11-25T16:05:59;0.10;;;0.10;;
8502;SDS011;4289;48.664;12.700;2022-11-25T16:09:22;0.10;;;0.10;;
8502;SDS011;4289;48.664;12.700;2022-11-25T16:16:38;0.10;;;0.10;;
8502;SDS011;4289;48.664;12.700;2022-11-25T16:20:01;0.10;;;0.10;;
8502;SDS011;4289;48.664;12.700;2022-11-25T16:23:23;0.10;;;0.10;;
8502;SDS011;4289;48.664;12.700;2022-11-25T16:26:49;0.10;;;0.10;;
8502;SDS011;4289;48.664;12.700;2022-11-25T16:30:16;0.10;;;0.10;;
8502;SDS011;4289;48.664;12.700;2022-11-25T16:33:40;0.10;;;0.10;;
8502;SDS011;4289;48.664;12.700;2022-11-25T16:37:02;0.13;;;0.13;;
8502;SDS011;4289;48.664;12.700;2022-11-25T16:40:24;0.10;;;0.10;;
8502;SDS011;4289;48.664;12.700;2022-11-25T16:43:47;0.10;;;0.10;;
8502;SDS011;4289;48.664;12.700;2022-11-25T16:47:09;0.10;;;0.10;;
8502;SDS011;4289;48.664;12.700;2022-11-25T16:50:33;0.10;;;0.10;;
8502;SDS011;4289;48.664;12.700;2022-11-25T16:53:55;0.10;;;0.10;;
8502;SDS011;4289;48.664;12.700;2022-11-25T16:57:19;0.10;;;0.10;;
8502;SDS011;4289;48.664;12.700;2022-11-25T17:00:42;0.10;;;0.10;;
8502;SDS011;4289;48.664;12.700;2022-11-25T17:04:07;0.10;;;0.10;;
8502;SDS011;4289;48.664;12.700;2022-11-25T17:07:32;0.10;;;0.10;;
8502;SDS011;4289;48.664;12.700;2022-11-25T17:10:55;0.10;;;0.10;;
8502;SDS011;4289;48.664;12.700;2022-11-25T17:14:19;0.10;;;0.10;;
8502;SDS011;4289;48.664;12.700;2022-11-25T17:17:45;0.10;;;0.10;;
8502;SDS011;4289;48.664;12.700;2022-11-25T17:21:08;0.10;;;0.10;;
8502;SDS011;4289;48.664;12.700;2022-11-25T17:24:35;0.10;;;0.10;;
8502;SDS011;4289;48.664;12.700;2022-11-25T17:27:57;0.10;;;0.10;;
8502;SDS011;4289;48.664;12.700;2022-11-25T17:31:23;0.10;;;0.10;;
8502;SDS011;4289;48.664;12.700;2022-11-25T17:34:47;0.10;;;0.10;;
8502;SDS011;4289;48.664;12.700;2022-11-25T17:38:11;0.10;;;0.10;;
8502;SDS011;4289;48.664;12.700;2022-11-25T17:41:35;0.10;;;0.10;;
8502;SDS011;4289;48.664;12.700;2022-11-25T17:45:00;0.10;;;0.10;;
8502;SDS011;4289;48.664;12.700;2022-11-25T17:48:23;0.10;;;0.10;;
8502;SDS011;4289;48.664;12.700;2022-11-25T17:51:47;0.10;;;0.10;;
8502;SDS011;4289;48.664;12.700;2022-11-25T17:55:09;0.10;;;0.10;;
8502;SDS011;4289;48.664;12.700;2022-11-25T17:58:33;0.10;;;0.10;;
8502;SDS011;4289;48.664;12.700;2022-11-25T18:01:55;0.10;;;0.10;;
8502;SDS011;4289;48.664;12.700;2022-11-25T18:09:10;0.10;;;0.10;;
8502;SDS011;4289;48.664;12.700;2022-11-25T18:12:32;0.10;;;0.10;;
8502;SDS011;4289;48.664;12.700;2022-11-25T18:15:57;0.10;;;0.10;;
8502;SDS011;4289;48.664;12.700;2022-11-25T18:19:19;0.10;;;0.10;;
8502;SDS011;4289;48.664;12.700;2022-11-25T18:22:41;0.10;;;0.10;;
8502;SDS011;4289;48.664;12.700;2022-11-25T18:26:05;0.10;;;0.10;;
8502;SDS011;4289;48.664;12.700;2022-11-25T18:29:29;0.10;;;0.10;;
8502;SDS011;4289;48.664;12.700;2022-11-25T18:32:53;0.10;;;0.10;;
8502;SDS011;4289;48.664;12.700;2022-11-25T18:36:17;0.10;;;0.10;;
8502;SDS011;4289;48.664;12.700;2022-11-25T18:39:40;0.10;;;0.10;;
8502;SDS011;4289;48.664;12.700;2022-11-25T18:43:03;0.10;;;0.10;;
8502;SDS011;4289;48.664;12.700;2022-11-25T18:46:26;0.10;;;0.10;;
8502;SDS011;4289;48.664;12.700;2022-11-25T18:49:51;0.10;;;0.10;;
8502;SDS011;4289;48.664;12.700;2022-11-25T18:53:14;0.10;;;0.10;;
8502;SDS011;4289;48.664;12.700;2022-11-25T18:56:37;0.10;;;0.10;;
8502;SDS011;4289;48.664;12.700;2022-11-25T19:00:00;0.10;;;0.10;;
8502;SDS011;4289;48.664;12.700;2022-11-25T19:03:24;0.10;;;0.10;;
8502;SDS011;4289;48.664;12.700;2022-11-25T19:06:48;0.10;;;0.10;;
8502;SDS011;4289;48.664;12.700;2022-11-25T19:10:11;0.10;;;0.10;;
8502;SDS011;4289;48.664;12.700;2022-11-25T19:13:33;0.10;;;0.10;;
8502;SDS011;4289;48.664;12.700;2022-11-25T19:16:57;0.10;;;0.10;;
8502;SDS011;4289;48.664;12.700;2022-11-25T19:20:22;0.10;;;0.10;;
8502;SDS011;4289;48.664;12.700;2022-11-25T19:23:49;0.10;;;0.10;;
8502;SDS011;4289;48.664;12.700;2022-11-25T19:27:13;0.10;;;0.10;;
8502;SDS011;4289;48.664;12.700;2022-11-25T19:30:38;0.10;;;0.10;;
8502;SDS011;4289;48.664;12.700;2022-11-25T19:34:00;0.10;;;0.10;;
8502;SDS011;4289;48.664;12.700;2022-11-25T19:37:22;0.10;;;0.10;;
8502;SDS011;4289;48.664;12.700;2022-11-25T19:40:47;0.10;;;0.10;;
8502;SDS011;4289;48.664;12.700;2022-11-25T19:44:10;0.10;;;0.10;;
8502;SDS011;4289;48.664;12.700;2022-11-25T19:47:33;0.13;;;0.13;;
8502;SDS011;4289;48.664;12.700;2022-11-25T19:50:56;0.10;;;0.10;;
8502;SDS011;4289;48.664;12.700;2022-11-25T19:54:21;0.10;;;0.10;;
8502;SDS011;4289;48.664;12.700;2022-11-25T19:57:45;0.10;;;0.10;;
8502;SDS011;4289;48.664;12.700;2022-11-25T20:01:08;0.10;;;0.10;;
8502;SDS011;4289;48.664;12.700;2022-11-25T20:04:33;0.10;;;0.10;;
8502;SDS011;4289;48.664;12.700;2022-11-25T20:07:56;0.10;;;0.10;;
8502;SDS011;4289;48.664;12.700;2022-11-25T20:11:18;0.10;;;0.10;;
8502;SDS011;4289;48.664;12.700;2022-11-25T20:14:42;0.10;;;0.10;;
8502;SDS011;4289;48.664;12.700;2022-11-25T20:18:04;0.10;;;0.10;;
8502;SDS011;4289;48.664;12.700;2022-11-25T20:21:29;0.10;;;0.10;;
8502;SDS011;4289;48.664;12.700;2022-11-25T20:24:53;0.10;;;0.10;;
8502;SDS011;4289;48.664;12.700;2022-11-25T20:28:18;0.10;;;0.10;;
8502;SDS011;4289;48.664;12.700;2022-11-25T20:31:42;0.10;;;0.10;;
8502;SDS011;4289;48.664;12.700;2022-11-25T20:35:05;0.10;;;0.10;;
8502;SDS011;4289;48.664;12.700;2022-11-25T20:38:30;0.10;;;0.10;;
8502;SDS011;4289;48.664;12.700;2022-11-25T20:41:53;0.10;;;0.10;;
8502;SDS011;4289;48.664;12.700;2022-11-25T20:45:16;0.10;;;0.10;;
8502;SDS011;4289;48.664;12.700;2022-11-25T20:48:41;0.10;;;0.10;;
8502;SDS011;4289;48.664;12.700;2022-11-25T20:52:04;0.10;;;0.10;;
8502;SDS011;4289;48.664;12.700;2022-11-25T20:55:26;0.10;;;0.10;;
8502;SDS011;4289;48.664;12.700;2022-11-25T20:58:49;0.10;;;0.10;;
8502;SDS011;4289;48.664;12.700;2022-11-25T21:02:12;0.10;;;0.10;;
8502;SDS011;4289;48.664;12.700;2022-11-25T21:05:36;0.00;;;0.00;;
8502;SDS011;4289;48.664;12.700;2022-11-25T21:08:59;0.00;;;0.00;;
8502;SDS011;4289;48.664;12.700;2022-11-25T21:12:22;0.10;;;0.10;;
8502;SDS011;4289;48.664;12.700;2022-11-25T21:15:45;0.10;;;0.10;;
8502;SDS011;4289;48.664;12.700;2022-11-25T21:19:12;0.10;;;0.10;;
8502;SDS011;4289;48.664;12.700;2022-11-25T21:22:36;0.10;;;0.10;;
8502;SDS011;4289;48.664;12.700;2022-11-25T21:26:00;0.10;;;0.10;;
8502;SDS011;4289;48.664;12.700;2022-11-25T21:29:24;0.10;;;0.10;;